createdAt,value
2023-02-18T00:04:59.694Z,55.1
2023-02-18T00:10:37.812Z,55.1
2023-02-18T00:15:59.636Z,55
2023-02-18T00:21:05.243Z,54.9
2023-02-18T00:26:42.817Z,54.9
2023-02-18T00:32:19.902Z,54.8
2023-02-18T00:37:40.133Z,54.8
2023-02-18T00:43:18.366Z,54.8
2023-02-18T00:48:55.572Z,54.8
2023-02-18T00:54:32.817Z,54.7
2023-02-18T01:00:09.920Z,54.6
2023-02-18T01:05:47.051Z,54.6
2023-02-18T01:11:24.531Z,54.6
2023-02-18T01:17:03.013Z,54.5
2023-02-18T01:22:39.271Z,54.4
2023-02-18T01:28:16.111Z,54.4
2023-02-18T01:33:54.238Z,54.4
2023-02-18T01:39:31.851Z,54.3
2023-02-18T01:45:08.820Z,54.3
2023-02-18T01:50:30.618Z,54.2
2023-02-18T01:56:09.059Z,54.2
2023-02-18T02:01:46.784Z,54.1
2023-02-18T02:07:23.833Z,54.1
2023-02-18T02:13:00.359Z,54.1
2023-02-18T02:18:36.700Z,54
2023-02-18T02:24:14.529Z,53.9
2023-02-18T02:29:51.394Z,53.9
2023-02-18T02:35:28.486Z,53.9
2023-02-18T02:41:06.535Z,53.8
2023-02-18T02:46:44.383Z,53.8
2023-02-18T02:52:21.953Z,53.8
2023-02-18T02:57:59.423Z,53.7
2023-02-18T03:03:36.751Z,53.7
2023-02-18T03:09:14.442Z,53.6
2023-02-18T03:14:52.051Z,53.6
2023-02-18T03:20:29.899Z,53.5
2023-02-18T03:26:07.569Z,53.5
2023-02-18T03:31:45.717Z,53.4
2023-02-18T03:37:23.533Z,53.4
2023-02-18T03:42:59.614Z,53.4
2023-02-18T03:48:21.348Z,53.3
2023-02-18T03:53:42.696Z,53.3
2023-02-18T03:59:19.987Z,53.3
2023-02-18T04:04:57.508Z,53.2
2023-02-18T04:10:34.768Z,53.1
2023-02-18T04:16:11.669Z,53.1
2023-02-18T04:21:48.835Z,53.1
2023-02-18T04:27:26.822Z,53
2023-02-18T04:32:52.306Z,52.9
2023-02-18T04:38:30.411Z,52.9
2023-02-18T04:44:08.172Z,52.9
2023-02-18T04:49:45.455Z,52.8
2023-02-18T04:55:22.266Z,52.8
2023-02-18T05:00:58.933Z,52.8
2023-02-18T05:06:20.291Z,52.7
2023-02-18T05:11:42.424Z,52.6
2023-02-18T05:17:04.496Z,52.6
2023-02-18T05:22:43.851Z,52.5
2023-02-18T05:28:05.207Z,52.5
2023-02-18T05:33:42.900Z,52.4
2023-02-18T05:39:21.249Z,52.4
2023-02-18T05:50:06.026Z,52.3
2023-02-18T05:55:43.404Z,52.3
2023-02-18T06:01:19.435Z,52.3
2023-02-18T06:06:42.649Z,52.2
2023-02-18T06:12:04.713Z,52.1
2023-02-18T06:17:42.468Z,52.1
2023-02-18T06:23:19.913Z,52.1
2023-02-18T06:28:57.806Z,52
2023-02-18T06:40:14.551Z,51.9
2023-02-18T06:45:51.564Z,51.9
2023-02-18T06:51:31.442Z,51.8
2023-02-18T06:57:08.582Z,51.8
2023-02-18T07:02:15.201Z,51.8
2023-02-18T07:07:53.696Z,51.6
2023-02-18T07:13:31.647Z,51.6
2023-02-18T07:19:08.364Z,51.4
2023-02-18T07:24:45.510Z,51.4
2023-02-18T07:30:07.028Z,51.4
2023-02-18T07:35:44.721Z,51.3
2023-02-18T07:41:21.650Z,51.3
2023-02-18T07:46:59.442Z,51.3
2023-02-18T07:52:37.064Z,51.2
2023-02-18T07:58:15.244Z,51.1
2023-02-18T08:03:52.350Z,51.1
2023-02-18T08:09:29.326Z,51.1
2023-02-18T08:15:16.844Z,51
2023-02-18T08:20:54.369Z,50.9
2023-02-18T08:26:35.225Z,50.9
2023-02-18T08:32:22.506Z,50.9
2023-02-18T08:37:51.935Z,50.8
2023-02-18T08:43:29.871Z,50.8
2023-02-18T08:50:36.601Z,50.7
2023-02-18T08:56:14.901Z,50.7
2023-02-18T09:01:38.934Z,50.6
2023-02-18T09:07:01.432Z,50.6
2023-02-18T09:12:38.037Z,50.5
2023-02-18T09:18:14.476Z,50.5
2023-02-18T09:23:51.873Z,50.4
2023-02-18T09:29:29.578Z,50.4
2023-02-18T09:35:25.869Z,50.3
2023-02-18T09:41:05.044Z,50.3
2023-02-18T09:46:27.057Z,50.3
2023-02-18T09:52:07.010Z,50.2
2023-02-18T09:57:46.380Z,50.2
2023-02-18T10:03:26.085Z,50.1
2023-02-18T10:09:03.833Z,50.1
2023-02-18T10:14:26.016Z,50.1
2023-02-18T10:20:07.822Z,50
2023-02-18T10:25:45.537Z,49.9
2023-02-18T10:31:07.423Z,49.9
2023-02-18T10:36:45.055Z,49.9
2023-02-18T10:42:06.088Z,49.9
2023-02-18T10:47:42.195Z,50.2
2023-02-18T10:53:19.622Z,50.6
2023-02-18T10:58:56.455Z,51.2
2023-02-18T11:04:34.594Z,51.6
2023-02-18T11:10:12.165Z,51.7
2023-02-18T11:15:46.695Z,51.7
2023-02-18T11:21:08.367Z,51.7
2023-02-18T11:26:15.248Z,51.7
2023-02-18T11:31:37.543Z,51.6
2023-02-18T11:36:59.597Z,51.6
2023-02-18T11:42:37.368Z,51.8
2023-02-18T11:47:58.502Z,52.1
2023-02-18T11:53:34.889Z,52.3
2023-02-18T11:58:57.356Z,52.6
2023-02-18T12:04:19.553Z,52.8
2023-02-18T12:09:41.397Z,53.1
2023-02-18T12:15:20.059Z,53.3
2023-02-18T12:21:00.161Z,53.4
2023-02-18T12:26:37.501Z,53.5
2023-02-18T12:32:00.329Z,53.5
2023-02-18T12:37:37.591Z,53.4
2023-02-18T12:43:16.556Z,53.4
2023-02-18T12:48:54.155Z,53.4
2023-02-18T12:54:30.990Z,53.4
2023-02-18T12:59:37.108Z,53.4
2023-02-18T13:04:59.392Z,53.4
2023-02-18T13:10:21.519Z,53.3
2023-02-18T13:15:42.722Z,53.4
2023-02-18T13:21:22.289Z,53.4
2023-02-18T13:27:01.433Z,53.4
2023-02-18T13:32:24.560Z,53.4
2023-02-18T13:38:02.166Z,53.3
2023-02-18T13:43:39.383Z,53.3
2023-02-18T13:49:16.005Z,53.3
2023-02-18T13:54:53.388Z,53.3
2023-02-18T14:00:30.225Z,53.2
2023-02-18T14:06:09.040Z,53.2
2023-02-18T14:11:46.088Z,53.2
2023-02-18T14:17:23.518Z,53.1
2023-02-18T14:23:00.336Z,53.1
2023-02-18T14:28:38.590Z,53.1
2023-02-18T14:34:06.417Z,53.1
2023-02-18T14:39:44.756Z,53
2023-02-18T14:45:06.939Z,52.9
2023-02-18T14:50:44.046Z,52.9
2023-02-18T14:56:20.534Z,52.9
2023-02-18T15:01:58.514Z,52.8
2023-02-18T15:07:36.770Z,52.8
2023-02-18T15:13:15.313Z,52.8
2023-02-18T15:18:37.725Z,52.7
2023-02-18T15:24:18.968Z,52.7
2023-02-18T15:29:56.140Z,52.6
2023-02-18T15:35:20.063Z,52.6
2023-02-18T15:40:56.949Z,52.6
2023-02-18T15:46:35.718Z,52.5
2023-02-18T15:52:07.212Z,52.5
2023-02-18T15:57:45.434Z,52.4
2023-02-18T16:03:24.177Z,52.4
2023-02-18T16:19:02.685Z,52.3
2023-02-18T16:24:37.156Z,52.3
2023-02-18T16:30:15.047Z,52.3
2023-02-18T16:36:06.055Z,52.2
2023-02-18T16:41:29.148Z,52.1
2023-02-18T16:46:51.593Z,52.1
2023-02-18T16:52:31.212Z,52.1
2023-02-18T16:58:08.722Z,52
2023-02-18T17:03:48.771Z,52
2023-02-18T17:15:02.795Z,51.9
2023-02-18T17:20:40.837Z,51.9
2023-02-18T17:26:20.566Z,51.8
2023-02-18T17:31:59.481Z,51.8
2023-02-18T17:37:37.733Z,51.8
2023-02-18T17:43:17.417Z,51.7
2023-02-18T17:48:43.362Z,51.7
2023-02-18T17:54:20.813Z,51.6
2023-02-18T17:59:27.165Z,51.6
2023-02-18T18:05:05.215Z,51.6
2023-02-18T18:10:27.239Z,51.5
2023-02-18T18:16:04.106Z,51.5
2023-02-18T18:21:42.091Z,51.4
2023-02-18T18:27:19.759Z,51.4
2023-02-18T18:32:56.650Z,51.4
2023-02-18T18:38:33.143Z,51.3
2023-02-18T18:43:55.509Z,51.3
2023-02-18T18:49:17.586Z,51.3
2023-02-18T18:54:56.817Z,51.2
2023-02-18T19:00:37.866Z,51.2
2023-02-18T19:06:15.289Z,51.1
2023-02-18T19:11:52.985Z,51.1
2023-02-18T19:17:31.230Z,51.1
2023-02-18T19:23:07.698Z,51
2023-02-18T19:28:46.041Z,50.9
2023-02-18T19:34:24.086Z,50.9
2023-02-18T19:40:00.093Z,50.9
2023-02-18T19:45:38.034Z,50.9
2023-02-18T19:51:15.376Z,50.8
2023-02-18T19:56:52.547Z,50.8
2023-02-18T20:02:30.806Z,50.7
2023-02-18T20:07:53.136Z,50.7
2023-02-18T20:13:29.892Z,50.6
2023-02-18T20:19:08.293Z,50.6
2023-02-18T20:30:50.839Z,50.6
2023-02-18T20:36:29.386Z,50.5
2023-02-18T20:42:32.040Z,50.4
2023-02-18T20:47:53.953Z,50.4
2023-02-18T20:53:32.181Z,50.4
2023-02-18T20:59:09.523Z,50.3
2023-02-18T21:04:48.433Z,50.3
2023-02-18T21:10:26.727Z,50.3
2023-02-18T21:16:03.898Z,50.3
2023-02-18T21:21:42.148Z,50.2
2023-02-18T21:27:05.042Z,50.1
2023-02-18T21:32:43.167Z,50.1
2023-02-18T21:38:35.274Z,50.1
2023-02-18T21:43:59.417Z,50
2023-02-18T21:49:31.065Z,50
2023-02-18T21:55:09.233Z,49.9
2023-02-18T22:01:08.295Z,49.9
2023-02-18T22:06:48.547Z,49.9
2023-02-18T22:12:25.648Z,49.8
2023-02-18T22:17:48.382Z,49.8
2023-02-18T22:23:26.272Z,49.8
2023-02-18T22:29:03.093Z,49.7
2023-02-18T22:34:42.027Z,49.7
2023-02-18T22:40:21.945Z,49.6
2023-02-18T22:45:58.966Z,49.6
2023-02-18T22:51:37.284Z,49.6
2023-02-18T22:57:14.233Z,49.5
2023-02-18T23:02:50.686Z,49.5
2023-02-18T23:08:27.807Z,49.4
2023-02-18T23:13:50.278Z,49.4
2023-02-18T23:19:28.461Z,49.4
2023-02-18T23:24:50.170Z,49.4
2023-02-18T23:30:27.517Z,49.3
2023-02-18T23:36:05.942Z,49.3
2023-02-18T23:41:27.732Z,49.2
2023-02-18T23:47:05.325Z,49.2
2023-02-18T23:52:41.941Z,49.1
2023-02-18T23:58:19.480Z,49.1
